Time;durP1;ratioP1;P1;durP2;ratioP2;P2;SDS_P1;SDS_P2;PMS_P1;PMS_P2;Temp;Humidity;BMP_temperature;BMP_pressure;BME280_temperature;BME280_humidity;BME280_pressure;Samples;Min_cycle;Max_cycle;Signal;HPM_P1;HPM_P2
2022/08/10 00:02:37;;;;;;;9.20;7.12;;;;;;;15.24;68.85;101340.20;1662987;85;25790;-68
2022/08/10 00:05:05;;;;;;;9.10;6.87;;;;;;;15.21;69.17;101338.09;1670849;85;26477;-68
2022/08/10 00:07:32;;;;;;;8.73;6.90;;;;;;;15.21;69.27;101335.94;1670620;85;25757;-68
2022/08/10 00:09:58;;;;;;;10.30;7.47;;;;;;;15.17;69.37;101339.03;1670915;85;28108;-69
2022/08/10 00:12:25;;;;;;;11.65;7.33;;;;;;;15.12;69.39;101337.27;1664159;85;26334;-69
2022/08/10 00:14:53;;;;;;;10.05;7.72;;;;;;;15.08;69.07;101336.27;1661921;85;25821;-68
2022/08/10 00:17:19;;;;;;;12.70;7.53;;;;;;;15.08;69.29;101338.42;1671120;85;26407;-67
2022/08/10 00:19:45;;;;;;;10.72;7.60;;;;;;;15.04;69.66;101338.83;1674675;85;25661;-68
2022/08/10 00:22:12;;;;;;;12.30;7.85;;;;;;;15.00;69.60;101334.31;1671549;85;29405;-68
2022/08/10 00:24:39;;;;;;;11.38;7.87;;;;;;;14.99;69.71;101338.96;1671119;85;25793;-68
2022/08/10 00:27:05;;;;;;;9.25;7.20;;;;;;;14.97;69.72;101335.75;1671484;85;25723;-69
2022/08/10 00:29:32;;;;;;;13.08;7.72;;;;;;;14.94;69.97;101337.73;1671198;85;25665;-68
2022/08/10 00:31:58;;;;;;;9.83;7.78;;;;;;;14.91;69.77;101332.91;1671845;85;25738;-69
2022/08/10 00:34:27;;;;;;;12.40;8.13;;;;;;;14.90;69.94;101336.20;1671065;85;27508;-68
2022/08/10 00:36:53;;;;;;;14.07;8.15;;;;;;;14.88;70.09;101328.91;1671113;85;25738;-69
2022/08/10 00:39:20;;;;;;;13.25;7.60;;;;;;;14.91;70.49;101332.91;1671193;85;25840;-68
2022/08/10 00:41:46;;;;;;;10.48;8.10;;;;;;;14.91;70.35;101331.55;1671209;85;25796;-67
2022/08/10 00:44:13;;;;;;;13.05;7.90;;;;;;;14.91;70.42;101335.63;1670996;85;25622;-67
2022/08/10 00:46:40;;;;;;;11.45;7.78;;;;;;;14.91;70.50;101335.63;1671044;85;28130;-67
2022/08/10 00:49:06;;;;;;;11.75;8.00;;;;;;;14.92;70.62;101337.25;1665167;85;25649;-67
2022/08/10 00:51:33;;;;;;;8.95;7.97;;;;;;;14.90;70.73;101333.47;1670826;85;25697;-67
2022/08/10 00:54:00;;;;;;;12.40;8.70;;;;;;;14.92;70.79;101334.52;1670366;85;26479;-67
2022/08/10 00:56:27;;;;;;;11.20;8.30;;;;;;;14.93;71.15;101338.84;1666939;85;25747;-68
2022/08/10 00:58:55;;;;;;;8.48;7.22;;;;;;;14.92;71.03;101334.52;1654803;86;27401;-68
2022/08/10 01:01:22;;;;;;;9.78;7.92;;;;;;;14.90;70.92;101338.92;1663546;86;25800;-68
2022/08/10 01:03:48;;;;;;;11.22;8.48;;;;;;;14.92;71.02;101339.97;1662863;86;25681;-68
2022/08/10 01:06:50;;;;;;;10.72;8.03;;;;;;;14.91;71.28;101340.54;1617420;87;25816;-68
2022/08/10 01:09:31;;;;;;;9.33;7.92;;;;;;;14.92;71.05;101343.49;1596485;89;25767;-67
2022/08/10 01:12:15;;;;;;;12.47;7.40;;;;;;;14.91;71.11;101346.53;1617254;87;27321;-66
2022/08/10 01:14:56;;;;;;;13.68;7.70;;;;;;;14.89;71.09;101341.95;1622959;87;25850;-66
2022/08/10 01:17:28;;;;;;;13.80;8.10;;;;;;;14.88;71.24;101344.42;1609959;88;25653;-66
2022/08/10 01:20:03;;;;;;;11.28;8.15;;;;;;;14.86;71.43;101339.28;1619338;87;26357;-67
2022/08/10 01:23:03;;;;;;;13.32;8.53;;;;;;;14.86;71.48;101345.30;1659487;85;25488;-67
2022/08/10 01:26:11;;;;;;;12.13;8.45;;;;;;;14.85;71.70;101341.78;1654649;86;27369;-66
2022/08/10 01:29:03;;;;;;;12.63;8.18;;;;;;;14.84;71.86;101344.81;1600283;89;25758;-66
2022/08/10 01:31:35;;;;;;;10.65;8.50;;;;;;;14.82;71.94;101347.05;1606181;88;25649;-67
2022/08/10 01:34:15;;;;;;;10.43;8.20;;;;;;;14.82;71.91;101349.77;1608108;88;26385;-67
2022/08/10 01:36:47;;;;;;;14.15;8.90;;;;;;;14.79;72.26;101348.46;1613869;88;25440;-66
2022/08/10 01:39:19;;;;;;;10.72;8.20;;;;;;;14.77;72.30;101345.81;1622824;88;28046;-66
2022/08/10 01:41:50;;;;;;;14.00;8.60;;;;;;;14.73;72.62;101350.52;1616878;88;26031;-66
2022/08/10 01:44:24;;;;;;;12.18;8.48;;;;;;;14.71;72.45;101347.31;1619483;88;25780;-67
2022/08/10 01:46:55;;;;;;;14.05;8.80;;;;;;;14.70;72.45;101349.78;1618213;88;25799;-67
2022/08/10 01:49:24;;;;;;;13.32;8.20;;;;;;;14.70;72.61;101355.22;1614751;88;25768;-67
2022/08/10 01:51:54;;;;;;;15.27;8.20;;;;;;;14.67;72.47;101346.30;1620710;88;27409;-66
2022/08/10 01:54:25;;;;;;;17.17;8.75;;;;;;;14.68;72.72;101349.86;1615960;88;25999;-66
2022/08/10 01:56:55;;;;;;;13.45;8.45;;;;;;;14.65;72.83;101350.47;1626495;87;26099;-67
2022/08/10 01:59:34;;;;;;;12.13;8.25;;;;;;;14.63;72.90;101354.06;1632597;87;25762;-67
2022/08/10 02:02:08;;;;;;;10.10;8.27;;;;;;;14.59;72.92;101347.05;1629704;87;25513;-66
2022/08/10 02:04:42;;;;;;;10.50;7.97;;;;;;;14.56;72.82;101347.66;1628793;86;27358;-66
2022/08/10 02:07:14;;;;;;;11.85;8.10;;;;;;;14.51;72.93;101350.52;1632739;86;26043;-66
2022/08/10 02:09:45;;;;;;;10.98;8.30;;;;;;;14.48;73.01;101351.13;1631423;86;25816;-67
2022/08/10 02:12:16;;;;;;;11.68;7.22;;;;;;;14.47;73.24;101353.59;1613575;87;25627;-67
2022/08/10 02:14:47;;;;;;;9.85;7.28;;;;;;;14.44;73.17;101352.84;1669119;85;25599;-67
2022/08/10 02:17:25;;;;;;;10.23;7.20;;;;;;;14.42;73.07;101353.17;1661709;85;28009;-67
2022/08/10 02:19:55;;;;;;;10.23;8.25;;;;;;;14.42;73.07;101352.34;1670663;85;25780;-68
2022/08/10 02:22:23;;;;;;;11.48;7.72;;;;;;;14.38;73.22;101346.16;1666759;85;25703;-68
2022/08/10 02:24:51;;;;;;;10.55;7.47;;;;;;;14.36;73.07;101353.83;1667097;85;25877;-67
2022/08/10 02:27:20;;;;;;;12.10;8.50;;;;;;;14.34;73.15;101349.83;1663875;85;25736;-67
2022/08/10 02:29:49;;;;;;;9.38;7.35;;;;;;;14.32;73.12;101351.49;1669810;84;28039;-67
2022/08/10 02:32:19;;;;;;;15.13;9.33;;;;;;;14.32;73.34;101348.77;1665830;85;25466;-67
2022/08/10 02:34:47;;;;;;;13.35;8.18;;;;;;;14.31;73.21;101356.67;1670520;85;25696;-67
2022/08/10 02:37:14;;;;;;;10.60;8.03;;;;;;;14.30;73.38;101353.72;1620293;87;26352;-67
2022/08/10 02:39:41;;;;;;;11.38;7.53;;;;;;;14.29;73.34;101358.11;1668248;85;25750;-67
2022/08/10 02:42:24;;;;;;;14.85;8.08;;;;;;;14.29;73.45;101362.19;1671783;85;29553;-67
2022/08/10 02:45:04;;;;;;;14.13;7.15;;;;;;;14.28;73.49;101361.93;1667331;85;25729;-66
2022/08/10 02:48:06;;;;;;;11.83;8.35;;;;;;;14.27;73.68;101364.39;1670235;85;25589;-67
2022/08/10 02:50:36;;;;;;;12.28;8.45;;;;;;;14.25;73.66;101366.09;1667509;85;25701;-67
2022/08/10 02:53:07;;;;;;;9.83;8.00;;;;;;;14.23;73.67;101367.49;1673934;85;25684;-68
2022/08/10 02:55:57;;;;;;;13.20;8.23;;;;;;;14.22;73.70;101361.79;1668972;85;27352;-68
2022/08/10 02:58:34;;;;;;;14.15;8.23;;;;;;;14.19;73.95;101365.37;1612407;87;25730;-67
2022/08/10 03:01:05;;;;;;;11.60;8.03;;;;;;;14.17;73.99;101361.38;1613454;88;25756;-67
2022/08/10 03:03:43;;;;;;;13.30;8.60;;;;;;;14.14;74.13;101365.50;1613412;87;25601;-67
2022/08/10 03:06:15;;;;;;;11.70;8.35;;;;;;;14.12;74.35;101370.45;1612186;87;25682;-67
2022/08/10 03:08:43;;;;;;;11.22;8.65;;;;;;;14.10;74.59;101370.52;1612145;87;27403;-67
2022/08/10 03:11:18;;;;;;;12.10;9.07;;;;;;;14.07;74.62;101370.56;1613884;88;25773;-67
2022/08/10 03:13:45;;;;;;;11.08;8.33;;;;;;;14.05;74.81;101376.08;1612691;87;25573;-68
2022/08/10 03:16:13;;;;;;;12.20;8.18;;;;;;;14.01;74.92;101366.33;1614071;88;25788;-68
2022/08/10 03:18:41;;;;;;;15.08;8.40;;;;;;;13.99;74.90;101371.28;1614496;87;25423;-68
2022/08/10 03:21:09;;;;;;;14.23;8.58;;;;;;;13.96;75.12;101374.07;1612906;87;27403;-68
2022/08/10 03:23:38;;;;;;;13.55;8.65;;;;;;;13.96;75.22;101378.69;1613464;87;25685;-68
2022/08/10 03:26:07;;;;;;;11.38;8.90;;;;;;;13.94;75.25;101376.83;1614247;87;29794;-68
2022/08/10 03:28:35;;;;;;;11.12;8.20;;;;;;;13.93;75.35;101368.44;1614259;88;25782;-68
2022/08/10 03:31:02;;;;;;;13.32;8.93;;;;;;;13.95;75.47;101373.02;1614463;87;25724;-68
2022/08/10 03:33:32;;;;;;;14.95;9.03;;;;;;;13.97;75.72;101369.42;1612998;87;27393;-68
2022/08/10 03:36:00;;;;;;;11.55;8.65;;;;;;;13.99;75.76;101371.28;1609834;87;25729;-66
2022/08/10 03:38:26;;;;;;;10.95;8.30;;;;;;;13.99;75.73;101372.08;1610632;87;25726;-67
2022/08/10 03:40:56;;;;;;;10.50;8.43;;;;;;;14.03;75.98;101385.90;1631451;86;26500;-67
2022/08/10 03:43:26;;;;;;;10.93;8.30;;;;;;;14.03;75.86;101383.71;1630346;86;25729;-67
2022/08/10 03:45:54;;;;;;;;;;;;;;;14.04;76.13;101382.05;1615912;88;27450;-67
2022/08/10 03:48:24;;;;;;;10.60;7.92;;;;;;;14.04;76.36;101379.89;1615771;87;25757;-68
2022/08/10 03:50:52;;;;;;;11.28;8.70;;;;;;;14.02;76.38;101382.91;1615418;88;25794;-68
2022/08/10 03:53:19;;;;;;;10.98;8.58;;;;;;;14.03;76.48;101382.35;1615979;87;25654;-68
2022/08/10 03:55:46;;;;;;;11.18;8.05;;;;;;;14.03;76.60;101392.70;1613464;87;25689;-68
2022/08/10 03:58:13;;;;;;;12.60;8.78;;;;;;;14.06;76.62;101388.55;1618029;87;27527;-68
2022/08/10 04:00:41;;;;;;;10.48;8.15;;;;;;;14.08;76.80;101393.95;1600017;89;25751;-68
2022/08/10 04:03:09;;;;;;;10.03;7.97;;;;;;;14.12;76.80;101392.78;1621181;88;25789;-68
2022/08/10 04:05:35;;;;;;;12.90;7.97;;;;;;;14.14;76.81;101391.91;1605705;87;25685;-68
2022/08/10 04:08:03;;;;;;;10.43;7.92;;;;;;;14.15;77.06;101390.25;1614678;87;25478;-68
2022/08/10 04:10:29;;;;;;;10.90;8.73;;;;;;;14.19;77.17;101393.16;1613293;88;27495;-68
2022/08/10 04:12:56;;;;;;;11.55;7.80;;;;;;;14.22;77.34;101393.91;1623968;87;25813;-68
2022/08/10 04:15:23;;;;;;;14.43;8.18;;;;;;;14.26;77.29;101391.38;1613034;88;25809;-68
2022/08/10 04:17:50;;;;;;;12.47;8.25;;;;;;;14.30;77.45;101398.63;1607198;88;25891;-68
2022/08/10 04:20:40;;;;;;;11.63;7.97;;;;;;;14.34;77.59;101398.81;1612812;88;25485;-68
2022/08/10 04:23:17;;;;;;;11.78;7.95;;;;;;;14.38;77.54;101399.23;1609998;88;27353;-66
2022/08/10 04:25:44;;;;;;;14.80;9.03;;;;;;;14.44;77.80;101406.74;1612129;88;25751;-66
2022/08/10 04:28:11;;;;;;;11.05;7.42;;;;;;;14.48;77.92;101403.64;1608601;87;25746;-66
2022/08/10 04:30:40;;;;;;;13.98;8.23;;;;;;;14.53;78.07;101404.09;1608583;88;25757;-66
2022/08/10 04:33:08;;;;;;;13.37;8.73;;;;;;;14.59;78.04;101400.14;1608691;88;25370;-69
2022/08/10 04:35:36;;;;;;;14.15;8.80;;;;;;;14.66;78.14;101405.16;1608563;88;28024;-68
2022/08/10 04:38:05;;;;;;;14.70;8.93;;;;;;;14.71;78.17;101406.39;1609544;88;25744;-68
2022/08/10 04:40:31;;;;;;;15.63;8.97;;;;;;;14.76;78.08;101403.55;1601701;88;25628;-68
2022/08/10 04:43:02;;;;;;;15.50;8.68;;;;;;;14.82;78.24;101403.67;1615448;88;25749;-68
2022/08/10 04:45:30;;;;;;;12.73;8.15;;;;;;;14.90;78.33;101408.95;1619501;88;26372;-67
2022/08/10 04:47:57;;;;;;;14.35;8.63;;;;;;;14.94;78.36;101403.91;1596632;89;28252;-67
2022/08/10 04:50:23;;;;;;;14.68;8.68;;;;;;;15.00;78.40;101407.33;1598808;89;25702;-67
2022/08/10 04:52:51;;;;;;;13.70;8.95;;;;;;;15.07;78.37;101407.68;1627508;87;25699;-68
2022/08/10 04:55:18;;;;;;;13.32;8.48;;;;;;;15.16;78.44;101415.11;1617030;88;25764;-68
2022/08/10 04:57:46;;;;;;;20.03;11.03;;;;;;;15.22;78.53;101407.02;1580507;86;25841;-66
2022/08/10 05:00:20;;;;;;;15.80;7.95;;;;;;;15.29;78.48;101407.41;1581368;90;27355;-66
2022/08/10 05:02:47;;;;;;;18.07;9.20;;;;;;;15.35;78.62;101403.41;1572263;90;25512;-68
2022/08/10 05:05:13;;;;;;;12.58;7.08;;;;;;;15.44;78.61;101413.80;1560083;91;25833;-68
2022/08/10 05:07:40;;;;;;;15.70;11.20;;;;;;;15.52;78.66;101416.87;1585620;90;25728;-67
2022/08/10 05:10:07;;;;;;;10.05;7.85;;;;;;;15.58;78.62;101409.59;1587896;90;25772;-67
2022/08/10 05:12:37;;;;;;;11.28;6.90;;;;;;;15.69;78.78;101414.98;1575831;90;27353;-68
2022/08/10 05:15:10;;;;;;;11.80;6.78;;;;;;;15.78;78.82;101419.16;1552198;91;25960;-68
2022/08/10 05:17:38;;;;;;;10.32;7.62;;;;;;;15.89;78.71;101417.50;1619158;88;25576;-68
2022/08/10 05:20:08;;;;;;;12.98;7.05;;;;;;;15.98;78.68;101412.86;1624920;88;25793;-68
2022/08/10 05:22:39;;;;;;;10.35;6.72;;;;;;;16.08;78.69;101420.73;1596897;89;25796;-68
2022/08/10 05:25:13;;;;;;;9.83;6.83;;;;;;;16.18;78.46;101416.91;1639535;86;27420;-67
2022/08/10 05:27:41;;;;;;;12.03;5.95;;;;;;;16.30;78.64;101417.07;1641589;86;26640;-68
2022/08/10 05:30:13;;;;;;;11.05;6.95;;;;;;;16.42;78.42;101422.69;1634683;86;25752;-68
2022/08/10 05:32:39;;;;;;;11.53;5.85;;;;;;;16.56;78.59;101425.83;1587778;88;26146;-67
2022/08/10 05:35:29;;;;;;;7.30;5.45;;;;;;;16.69;78.55;101422.12;1588274;88;25750;-67
2022/08/10 05:37:58;;;;;;;9.78;6.62;;;;;;;16.84;78.25;101423.59;1509964;94;27377;-68
2022/08/10 05:40:26;;;;;;;8.68;5.75;;;;;;;17.02;78.28;101428.45;1526319;91;25800;-68
2022/08/10 05:42:54;;;;;;;12.30;6.50;;;;;;;17.17;77.93;101432.59;1545084;91;25776;-67
2022/08/10 05:45:24;;;;;;;8.85;5.90;;;;;;;17.34;77.93;101427.06;1539421;91;25819;-68
2022/08/10 05:47:51;;;;;;;8.40;5.35;;;;;;;17.52;77.98;101426.45;1541189;91;25724;-68
2022/08/10 05:50:26;;;;;;;7.00;4.72;;;;;;;17.71;77.52;101427.97;1518052;93;27547;-68
2022/08/10 05:52:53;;;;;;;7.80;5.70;;;;;;;17.87;77.03;101429.59;1537273;91;26056;-68
2022/08/10 05:55:22;;;;;;;6.70;5.30;;;;;;;18.03;76.58;101425.70;1536454;91;25732;-68
2022/08/10 05:57:53;;;;;;;8.83;5.40;;;;;;;18.19;76.09;101430.84;1537943;91;25726;-68
2022/08/10 06:00:24;;;;;;;9.83;5.62;;;;;;;18.34;75.64;101427.26;1535919;91;25744;-69
2022/08/10 06:02:56;;;;;;;6.47;4.80;;;;;;;18.51;75.85;101435.91;1537752;91;28109;-68
2022/08/10 06:05:28;;;;;;;7.28;4.30;;;;;;;18.67;75.18;101437.70;1535828;91;25868;-68
2022/08/10 06:08:05;;;;;;;6.42;4.72;;;;;;;18.81;74.86;101432.50;1540100;91;25724;-67
2022/08/10 06:10:36;;;;;;;6.95;4.40;;;;;;;18.97;74.58;101436.25;1534339;91;25788;-68
2022/08/10 06:15:54;;;;;;;6.53;4.40;;;;;;;19.30;73.87;101426.37;1587052;88;28147;-67
2022/08/10 06:18:23;;;;;;;8.55;4.42;;;;;;;19.47;73.42;101431.64;1611297;87;25781;-68
2022/08/10 06:20:51;;;;;;;5.22;3.50;;;;;;;19.65;73.09;101428.67;1587006;88;34913;-68
2022/08/10 06:23:19;;;;;;;5.03;4.08;;;;;;;19.81;72.36;101428.25;1594884;88;25684;-68
2022/08/10 06:25:45;;;;;;;6.65;4.33;;;;;;;19.99;71.86;101427.99;1589008;88;25501;-66
2022/08/10 06:28:16;;;;;;;8.20;5.28;;;;;;;20.15;71.50;101428.89;1602787;88;28065;-69
2022/08/10 06:30:44;;;;;;;6.75;5.60;;;;;;;20.36;71.22;101429.29;1606552;88;25699;-68
2022/08/10 06:33:14;;;;;;;4.70;3.83;;;;;;;20.58;71.03;101434.83;1613460;88;25709;-69
2022/08/10 06:35:41;;;;;;;7.83;3.80;;;;;;;20.75;70.02;101426.30;1582001;88;25880;-70
2022/08/10 06:38:09;;;;;;;5.78;3.20;;;;;;;21.02;69.87;101429.38;1617792;85;26330;-67
2022/08/10 06:40:38;;;;;;;4.12;3.10;;;;;;;;;;1635734;86;27347;-64
2022/08/10 06:43:09;;;;;;;3.80;3.33;;;;;;;21.52;68.90;101427.11;1623869;87;25821;-64
2022/08/10 06:45:48;;;;;;;6.60;3.35;;;;;;;21.81;68.02;101432.16;1638238;86;25657;-65
2022/08/10 06:48:40;;;;;;;4.45;3.27;;;;;;;22.10;67.45;101438.86;1622020;87;25718;-64
2022/08/10 06:51:12;;;;;;;5.20;3.58;;;;;;;22.44;65.60;101433.15;1691682;83;25698;-64
2022/08/10 06:53:45;;;;;;;3.80;2.70;;;;;;;22.77;64.69;101433.78;1657245;84;27367;-65
2022/08/10 06:56:17;;;;;;;2.85;2.62;;;;;;;23.10;64.55;101426.33;1657508;84;25483;-64
2022/08/10 06:59:01;;;;;;;8.00;2.95;;;;;;;23.45;63.57;101427.52;1658980;85;26240;-64
2022/08/10 07:01:32;;;;;;;5.15;2.83;;;;;;;23.79;62.91;101417.97;1665746;85;25687;-64
2022/08/10 07:04:10;;;;;;;3.65;2.42;;;;;;;24.12;62.04;101417.86;1681573;83;25692;-64
2022/08/10 07:06:43;;;;;;;4.58;2.77;;;;;;;24.40;60.87;101415.27;1676985;84;27556;-64
2022/08/10 07:09:13;;;;;;;4.03;2.55;;;;;;;24.68;60.13;101417.56;1667019;84;25450;-64
2022/08/10 07:11:43;;;;;;;8.55;2.80;;;;;;;24.88;58.62;101420.16;1683959;83;25613;-65
2022/08/10 07:14:13;;;;;;;6.28;2.45;;;;;;;25.08;57.65;101415.19;1681374;84;25715;-67
2022/08/10 07:16:44;;;;;;;3.52;2.47;;;;;;;25.37;57.19;101423.20;1644191;84;25426;-65
2022/08/10 07:19:12;;;;;;;3.62;2.33;;;;;;;25.70;56.65;101420.84;1686037;83;28093;-67
2022/08/10 07:21:42;;;;;;;4.10;2.65;;;;;;;26.05;56.62;101419.52;1647906;84;25729;-66
2022/08/10 07:24:12;;;;;;;3.58;2.17;;;;;;;26.49;55.39;101423.23;1678959;84;25793;-66
2022/08/10 07:27:08;;;;;;;;;;;;;;;;;;;;;
2022/08/10 07:29:47;;;;;;;;;;;;;;;;;;;;;
2022/08/10 07:32:29;;;;;;;3.15;2.25;;;;;;;27.49;51.79;101423.23;1680276;83;26142;-65
2022/08/10 07:35:23;;;;;;;3.70;2.22;;;;;;;27.82;50.54;101419.79;1664941;85;26101;-65
2022/08/10 07:38:06;;;;;;;3.33;1.90;;;;;;;28.03;49.88;101417.59;1641105;84;2345596;-66
2022/08/10 07:40:50;;;;;;;4.12;2.20;;;;;;;28.08;48.49;101419.95;1662810;85;26253;-67
2022/08/10 07:43:19;;;;;;;3.52;1.80;;;;;;;27.99;48.00;101418.19;1674260;84;25652;-66
2022/08/10 07:45:47;;;;;;;3.85;1.90;;;;;;;28.12;48.00;101411.78;1652988;84;27346;-66
2022/08/10 07:48:26;;;;;;;3.95;2.05;;;;;;;28.32;47.47;101409.31;1647180;84;25731;-66
2022/08/10 07:50:58;;;;;;;5.72;2.25;;;;;;;28.45;47.07;101412.44;1633007;86;25842;-66
2022/08/10 07:53:29;;;;;;;4.08;1.80;;;;;;;28.63;46.71;101409.57;1653786;84;26493;-66
2022/08/10 07:55:58;;;;;;;2.35;2.10;;;;;;;28.87;46.39;101416.78;1652538;86;25489;-66
2022/08/10 07:58:28;;;;;;;;;;;;;;;29.02;46.01;101413.30;1653949;86;28204;-65
2022/08/10 08:00:56;;;;;;;5.58;2.33;;;;;;;28.98;44.35;101419.48;1650568;84;25987;-66
2022/08/10 08:03:28;;;;;;;4.30;2.27;;;;;;;28.64;44.39;101419.52;1653450;84;25800;-66
2022/08/10 08:05:58;;;;;;;3.33;2.15;;;;;;;28.56;44.94;101420.75;1650721;84;26404;-66
2022/08/10 08:08:27;;;;;;;6.87;2.22;;;;;;;28.64;44.67;101418.70;1665915;84;25817;-66
2022/08/10 08:10:54;;;;;;;3.22;1.90;;;;;;;28.42;44.14;101420.20;1628349;87;27506;-66
2022/08/10 08:13:22;;;;;;;8.90;2.25;;;;;;;28.15;43.83;101428.88;1664235;84;25517;-67
2022/08/10 08:15:52;;;;;;;4.10;2.02;;;;;;;27.84;43.94;101425.73;1634590;85;25705;-66
2022/08/10 08:18:22;;;;;;;2.77;2.37;;;;;;;27.69;44.44;101427.16;1661158;84;26151;-66
2022/08/10 08:20:49;;;;;;;3.65;2.10;;;;;;;27.92;45.17;101419.00;1633242;85;25748;-65
2022/08/10 08:23:17;;;;;;;4.22;2.27;;;;;;;28.13;44.98;101420.94;1689184;83;27400;-65
2022/08/10 08:25:46;;;;;;;3.70;2.30;;;;;;;28.08;44.12;101420.74;1664984;84;25785;-65
2022/08/10 08:28:13;;;;;;;4.75;2.40;;;;;;;27.87;43.98;101416.02;1664622;84;25740;-65
2022/08/10 08:30:41;;;;;;;18.90;13.18;;;;;;;27.63;43.90;101414.86;1663110;84;25828;-65
2022/08/10 08:33:10;;;;;;;4.83;3.10;;;;;;;27.45;44.16;101411.31;1659515;84;25753;-66
2022/08/10 08:35:36;;;;;;;5.85;2.90;;;;;;;27.29;44.14;101413.90;1689450;83;27391;-65
2022/08/10 08:38:05;;;;;;;4.55;2.22;;;;;;;27.07;44.23;101405.34;1663675;84;25763;-66
2022/08/10 08:40:36;;;;;;;3.45;2.17;;;;;;;26.92;45.01;101412.86;1670397;84;25745;-65
2022/08/10 08:43:31;;;;;;;3.87;2.02;;;;;;;26.94;44.42;101403.56;1626691;86;26579;-66
2022/08/10 08:46:32;;;;;;;2.22;1.77;;;;;;;27.00;45.01;101403.36;1630447;87;25651;-67
2022/08/10 08:49:28;;;;;;;3.05;1.72;;;;;;;27.58;45.22;101398.02;1642639;85;27416;-66
2022/08/10 08:52:23;;;;;;;4.28;1.90;;;;;;;28.22;44.35;101396.25;1639713;85;26324;-66
2022/08/10 08:55:03;;;;;;;3.20;2.22;;;;;;;28.21;43.10;101402.21;1638122;85;25679;-65
2022/08/10 08:57:55;;;;;;;5.22;2.33;;;;;;;28.30;43.62;101399.80;1641474;85;26479;-66
2022/08/10 09:00:45;;;;;;;3.70;2.45;;;;;;;28.59;43.12;101394.91;1589285;88;25735;-65
2022/08/10 09:04:01;;;;;;;2.95;2.25;;;;;;;28.46;42.12;101395.92;1602221;89;27363;-65
2022/08/10 09:07:09;;;;;;;4.28;2.33;;;;;;;28.21;41.92;101397.44;1575659;88;25820;-65
2022/08/10 09:09:52;;;;;;;1.85;1.70;;;;;;;28.16;43.21;101399.24;1584651;87;25916;-65
2022/08/10 09:12:54;;;;;;;2.77;2.00;;;;;;;28.64;42.82;101397.83;1575668;88;25763;-65
2022/08/10 09:16:08;;;;;;;5.30;2.30;;;;;;;29.23;43.00;101395.64;1616305;87;25883;-65
2022/08/10 09:29:03;;;;;;;2.92;1.90;;;;;;;32.86;36.39;101387.04;1805907;77;26841;-64
2022/08/10 09:31:35;;;;;;;2.62;1.65;;;;;;;32.92;36.22;101379.66;1775999;79;25745;-65
2022/08/10 09:34:25;;;;;;;1.85;1.55;;;;;;;33.15;34.59;101380.72;1759027;79;28176;-63
2022/08/10 09:37:03;;;;;;;1.00;0.90;;;;;;;32.88;34.44;101383.77;1753254;79;26627;-65
2022/08/10 09:39:50;;;;;;;2.05;1.35;;;;;;;33.03;34.12;101382.81;1760289;81;26063;-66
2022/08/10 09:42:57;;;;;;;1.42;1.32;;;;;;;33.12;33.81;101387.98;1745085;81;25594;-65
2022/08/10 09:46:07;;;;;;;2.75;1.75;;;;;;;33.16;33.91;101381.53;1745222;81;25663;-66
2022/08/10 09:48:56;;;;;;;;;;;;;;;33.15;33.60;101377.14;1758151;80;27315;-66
2022/08/10 09:52:00;;;;;;;3.92;2.47;;;;;;;32.46;33.19;101377.96;1741088;81;27403;-71
2022/08/10 09:54:47;;;;;;;2.35;2.00;;;;;;;31.81;34.15;101377.91;1737736;80;25756;-68
2022/08/10 09:57:34;;;;;;;4.25;2.45;;;;;;;31.00;34.89;101375.55;1733544;81;25628;-70
2022/08/10 10:00:11;;;;;;;4.70;1.82;;;;;;;30.20;35.59;101371.52;1753054;81;25625;-66
2022/08/10 10:02:52;;;;;;;3.75;2.00;;;;;;;29.51;36.00;101369.51;1752354;81;27456;-67
2022/08/10 10:05:45;;;;;;;2.90;2.30;;;;;;;28.94;36.93;101365.82;1733886;81;26344;-65
2022/08/10 10:08:41;;;;;;;3.22;2.12;;;;;;;28.36;38.06;101366.17;1741638;81;25338;-65
2022/08/10 10:11:46;;;;;;;4.95;2.45;;;;;;;27.79;39.02;101369.16;1757821;81;25721;-70
2022/08/10 10:14:28;;;;;;;5.28;4.70;;;;;;;27.28;39.75;101371.24;1715222;83;25791;-66
2022/08/10 10:17:09;;;;;;;2.67;2.00;;;;;;;26.90;40.46;101367.48;1720499;83;29668;-66
2022/08/10 10:19:55;;;;;;;4.58;1.77;;;;;;;26.60;41.22;101361.66;1717132;83;25542;-66
2022/08/10 10:22:53;;;;;;;4.03;2.27;;;;;;;26.34;41.70;101353.66;1695264;83;25781;-65
2022/08/10 10:25:30;;;;;;;4.40;2.17;;;;;;;26.20;42.19;101359.36;1713693;81;25726;-67
2022/08/10 10:28:28;;;;;;;3.17;2.08;;;;;;;26.47;43.71;101357.66;1698407;83;25827;-67
2022/08/10 10:31:11;;;;;;;6.12;1.95;;;;;;;27.01;44.73;101350.22;1677672;84;28140;-68
2022/08/10 10:34:06;;;;;;;2.20;1.62;;;;;;;27.75;43.44;101346.37;1696183;82;25811;-68
2022/08/10 10:36:34;;;;;;;2.70;2.10;;;;;;;28.54;43.13;101343.81;1655561;84;31808;-68
2022/08/10 10:39:03;;;;;;;2.43;1.70;;;;;;;29.21;42.46;101340.95;1641554;85;25761;-67
2022/08/10 10:41:39;;;;;;;;;;;;;;;29.46;40.15;101338.50;1622382;85;25789;-66
2022/08/10 10:44:22;;;;;;;2.77;2.02;;;;;;;29.37;39.08;101339.80;1603415;85;27524;-67
2022/08/10 10:47:33;;;;;;;4.53;1.45;;;;;;;29.23;40.13;101337.14;1656604;85;25681;-67
2022/08/10 10:50:12;;;;;;;2.98;1.77;;;;;;;29.70;39.78;101339.45;1671204;85;25667;-66
2022/08/10 10:53:07;;;;;;;1.55;1.45;;;;;;;30.38;38.29;101343.38;1671848;85;25667;-69
2022/08/10 10:56:08;;;;;;;2.33;2.00;;;;;;;30.56;36.97;101338.33;1637769;85;25690;-67
2022/08/10 10:59:18;;;;;;;4.75;2.00;;;;;;;30.38;36.50;101333.61;1664402;85;27510;-68
2022/08/10 11:02:11;;;;;;;4.55;1.75;;;;;;;30.10;36.32;101338.36;1671535;85;25673;-66
2022/08/10 11:04:57;;;;;;;3.37;1.57;;;;;;;29.89;36.18;101340.22;1651963;85;25708;-67
2022/08/10 11:07:35;;;;;;;3.83;1.70;;;;;;;29.58;35.93;101329.02;1658281;85;25805;-70
2022/08/10 11:10:22;;;;;;;3.02;1.25;;;;;;;29.25;36.13;101326.37;1653216;85;25650;-67
2022/08/10 11:13:27;;;;;;;2.55;1.30;;;;;;;28.93;36.66;101319.67;1663670;82;28256;-67
2022/08/10 11:16:20;;;;;;;3.02;1.62;;;;;;;28.62;36.85;101313.38;1657108;82;25690;-68
2022/08/10 11:19:09;;;;;;;1.98;1.30;;;;;;;28.40;37.11;101313.29;1649053;85;25794;-67
2022/08/10 11:22:06;;;;;;;4.15;1.60;;;;;;;28.16;37.36;101303.30;1657859;85;26414;-67
2022/08/10 11:24:59;;;;;;;3.47;1.60;;;;;;;27.94;37.57;101311.77;1654837;85;25779;-68
2022/08/10 11:27:40;;;;;;;6.03;1.60;;;;;;;27.93;38.09;101311.56;1674516;82;27479;-67
2022/08/10 11:30:11;;;;;;;4.50;1.47;;;;;;;27.93;37.84;101304.61;1658232;85;25696;-66
2022/08/10 11:32:52;;;;;;;2.42;1.70;;;;;;;27.99;38.87;101296.63;1660668;83;26681;-68
2022/08/10 11:35:41;;;;;;;2.00;1.32;;;;;;;28.47;39.00;101293.18;1678056;82;25818;-67
2022/08/10 11:38:30;;;;;;;2.33;1.30;;;;;;;29.15;38.33;101289.63;1658822;85;25750;-69
2022/08/10 11:41:24;;;;;;;1.77;1.50;;;;;;;29.49;37.62;101298.66;1668009;82;27559;-69
2022/08/10 11:44:02;;;;;;;2.42;1.60;;;;;;;29.64;36.87;101293.72;1656143;85;25705;-68
2022/08/10 11:46:35;;;;;;;1.32;1.17;;;;;;;29.90;36.60;101291.63;1663752;85;25428;-69
2022/08/10 11:49:12;;;;;;;1.60;1.50;;;;;;;29.99;35.94;101288.31;1661771;84;25774;-69
2022/08/10 11:51:53;;;;;;;3.12;1.50;;;;;;;30.41;36.36;101286.73;1662866;84;25769;-67
2022/08/10 11:54:42;;;;;;;2.65;1.65;;;;;;;30.85;35.57;101285.63;1668372;82;27684;-68
2022/08/10 11:57:10;;;;;;;;;;;;;;;31.13;35.39;101271.59;1687231;82;25691;-68
2022/08/10 11:59:56;;;;;;;2.00;1.50;;;;;;;31.53;35.13;101276.59;1664206;84;25728;-67
2022/08/10 12:03:01;;;;;;;1.60;1.40;;;;;;;32.04;34.67;101269.31;1667620;85;25781;-67
2022/08/10 12:05:36;;;;;;;3.52;1.62;;;;;;;31.98;33.21;101283.03;1674105;84;25668;-68
2022/08/10 12:08:04;;;;;;;1.62;1.50;;;;;;;31.71;32.70;101283.22;1643630;82;27541;-67
2022/08/10 12:10:33;;;;;;;4.13;2.73;;;;;;;31.36;32.40;101279.12;1660428;84;25700;-67
2022/08/10 12:13:14;;;;;;;3.62;1.70;;;;;;;31.16;32.95;101280.49;1673253;84;25633;-67
2022/08/10 12:16:09;;;;;;;2.00;1.80;;;;;;;31.09;32.99;101275.83;1681576;83;25668;-67
2022/08/10 12:18:46;;;;;;;1.57;1.47;;;;;;;30.98;32.84;101278.05;1671306;84;25692;-67
2022/08/10 12:21:46;;;;;;;1.80;1.40;;;;;;;30.78;32.74;101275.17;1669065;84;27552;-69